Time;durP1;ratioP1;P1;durP2;ratioP2;P2;SDS_P1;SDS_P2;PMS_P1;PMS_P2;Temp;Humidity;BMP_temperature;BMP_pressure;BME280_temperature;BME280_humidity;BME280_pressure;Samples;Min_cycle;Max_cycle;Signal;HPM_P1;HPM_P2
2023/06/15 00:00:46;;;;;;;;;3.25;3.25;;;;;21.54;52.56;101945.78;5030444;28;8834;-66
2023/06/15 00:03:14;;;;;;;;;9.00;8.67;;;;;21.49;52.33;101935.56;5030013;28;8826;-67
2023/06/15 00:05:41;;;;;;;;;5.00;5.00;;;;;21.41;52.89;101939.50;5030316;28;8913;-66
2023/06/15 00:08:07;;;;;;;;;6.75;6.50;;;;;21.33;52.81;101939.03;5031621;28;8822;-68
2023/06/15 00:10:34;;;;;;;;;7.00;6.00;;;;;21.34;52.82;101932.47;5031544;28;8917;-67
2023/06/15 00:13:00;;;;;;;;;6.00;6.00;;;;;21.20;52.83;101932.69;5031597;28;8932;-66
2023/06/15 00:15:27;;;;;;;;;6.33;6.33;;;;;21.09;53.04;101932.69;5030148;28;8829;-66
2023/06/15 00:17:54;;;;;;;;;7.25;6.75;;;;;21.07;53.33;101938.41;5031285;28;8961;-67
2023/06/15 00:20:22;;;;;;;;;5.00;3.75;;;;;21.13;53.39;101936.63;5031479;28;8814;-66
2023/06/15 00:22:49;;;;;;;;;5.00;5.00;;;;;21.17;52.87;101927.69;5031128;28;8854;-67
2023/06/15 00:25:15;;;;;;;;;4.00;3.00;;;;;21.20;52.84;101934.59;5030916;28;8841;-67
2023/06/15 00:27:43;;;;;;;;;7.00;7.00;;;;;21.25;52.61;101926.50;5031288;28;8870;-66
2023/06/15 00:30:10;;;;;;;;;5.25;5.25;;;;;21.24;52.64;101930.31;5031169;28;8830;-66
2023/06/15 00:32:37;;;;;;;;;6.50;6.50;;;;;21.22;52.65;101929.72;5029530;28;8884;-66
2023/06/15 00:35:04;;;;;;;;;5.00;5.00;;;;;21.23;52.40;101936.88;5029721;28;8841;-68
2023/06/15 00:37:31;;;;;;;;;6.25;6.25;;;;;21.15;52.22;101929.03;5031167;28;8868;-66
2023/06/15 00:39:57;;;;;;;;;7.75;6.00;;;;;21.16;52.85;101947.09;5030945;28;8836;-67
2023/06/15 00:42:24;;;;;;;;;6.50;6.50;;;;;21.22;52.65;101940.66;5031056;28;8830;-66
2023/06/15 00:44:50;;;;;;;;;2.75;2.75;;;;;21.24;52.69;101931.16;5030486;28;8818;-67
2023/06/15 00:47:20;;;;;;;;;4.00;4.00;;;;;21.26;52.62;101935.53;5030732;28;8814;-67
2023/06/15 00:49:47;;;;;;;;;3.00;3.00;;;;;21.28;52.47;101938.91;5030816;28;8849;-67
2023/06/15 00:52:16;;;;;;;;;4.75;4.75;;;;;21.19;52.45;101949.38;5029530;28;8815;-66
2023/06/15 00:54:43;;;;;;;;;4.50;4.50;;;;;21.16;52.61;101947.09;5062369;28;8842;-67
2023/06/15 00:57:14;;;;;;;;;4.25;4.25;;;;;21.11;52.46;101945.09;5012918;28;8838;-66
2023/06/15 00:59:41;;;;;;;;;4.50;4.00;;;;;21.10;52.49;101937.91;5062507;28;8945;-67
2023/06/15 01:02:12;;;;;;;;;6.00;5.00;;;;;21.02;52.00;101940.19;5030568;28;8818;-66
2023/06/15 01:04:39;;;;;;;;;7.00;6.00;;;;;20.87;52.55;101938.75;5062025;28;8854;-68
2023/06/15 01:07:10;;;;;;;;;4.00;4.00;;;;;20.90;53.01;101946.50;5029138;28;8837;-66
2023/06/15 01:09:40;;;;;;;;;5.00;4.25;;;;;20.94;52.76;101950.44;5029456;28;8834;-68
2023/06/15 01:12:11;;;;;;;;;7.67;6.00;;;;;20.94;52.24;101944.09;5030551;28;8826;-67
2023/06/15 01:14:39;;;;;;;;;4.50;3.25;;;;;20.82;52.85;101937.78;5062523;28;8928;-66
2023/06/15 01:17:13;;;;;;;;;6.25;4.25;;;;;20.85;53.17;101946.34;5030452;28;8834;-67
2023/06/15 01:19:57;;;;;;;;;4.00;3.00;;;;;20.89;53.10;101938.50;5030349;28;8908;-67
2023/06/15 01:22:44;;;;;;;;;4.00;4.00;;;;;20.92;53.20;101940.78;5028944;28;8826;-67
2023/06/15 01:25:29;;;;;;;;;3.25;3.25;;;;;20.96;53.03;101944.72;5028767;28;8952;-67
2023/06/15 01:28:01;;;;;;;;;5.25;3.00;;;;;20.99;52.95;101941.50;5029003;28;8912;-67
2023/06/15 01:30:30;;;;;;;;;3.75;3.75;;;;;21.02;52.87;101940.19;5030264;28;8822;-68
2023/06/15 01:32:57;;;;;;;;;3.00;3.00;;;;;21.03;52.88;101942.72;5028942;28;8822;-66
2023/06/15 01:35:24;;;;;;;;;3.50;3.00;;;;;21.00;53.13;101943.16;5028709;28;8892;-67
2023/06/15 01:37:50;;;;;;;;;5.33;5.33;;;;;21.03;52.95;101950.91;5030080;28;8853;-67
2023/06/15 01:40:17;;;;;;;;;2.25;2.25;;;;;21.02;52.99;101943.75;5030111;28;8908;-66
2023/06/15 01:42:45;;;;;;;;;7.00;3.50;;;;;21.04;52.98;101946.28;5029983;28;8826;-67
2023/06/15 01:45:14;;;;;;;;;3.50;3.50;;;;;21.06;52.95;101946.84;5061742;28;9580;-67
2023/06/15 01:47:43;;;;;;;;;3.25;3.00;;;;;21.03;53.17;101953.66;5029826;28;8919;-66
2023/06/15 01:50:11;;;;;;;;;6.00;4.00;;;;;20.99;52.95;101936.88;5012605;28;9623;-66
2023/06/15 01:52:38;;;;;;;;;3.75;3.50;;;;;20.96;53.17;101944.72;5028629;28;8850;-66
2023/06/15 01:55:07;;;;;;;;;5.25;4.00;;;;;20.94;53.47;101938.63;5028327;28;9579;-66
2023/06/15 01:57:36;;;;;;;;;3.50;3.50;;;;;20.93;53.65;101942.44;5028521;28;8864;-67
2023/06/15 02:00:06;;;;;;;;;5.75;3.00;;;;;20.88;53.67;101945.06;5061719;28;9613;-67
2023/06/15 02:02:39;;;;;;;;;5.25;4.50;;;;;20.78;53.22;101940.16;5029643;28;8977;-66
2023/06/15 02:05:07;;;;;;;;;5.00;5.00;;;;;20.71;54.17;101945.75;5028292;28;8853;-67
2023/06/15 02:07:34;;;;;;;;;2.75;2.75;;;;;20.74;53.85;101941.69;5028682;28;9750;-66
2023/06/15 02:10:01;;;;;;;;;3.75;3.75;;;;;20.76;53.73;101936.00;5028517;28;8904;-67
2023/06/15 02:12:28;;;;;;;;;2.25;2.25;;;;;20.74;53.73;101942.56;5028332;28;8860;-67
2023/06/15 02:14:55;;;;;;;;;5.00;4.75;;;;;20.72;53.78;101941.94;5061486;28;8924;-67
2023/06/15 02:17:24;;;;;;;;;4.00;2.00;;;;;20.71;53.85;101942.19;5044940;28;8842;-66
2023/06/15 02:19:51;;;;;;;;;7.50;4.50;;;;;20.70;53.69;101938.63;5029485;28;9030;-68
2023/06/15 02:22:19;;;;;;;;;3.25;3.25;;;;;20.65;54.02;101946.69;5032375;28;8861;-67
2023/06/15 02:24:45;;;;;;;;;4.00;4.00;;;;;20.62;53.91;101946.31;5033200;28;8822;-67
2023/06/15 02:27:12;;;;;;;;;3.00;3.00;;;;;20.56;53.99;101939.88;5033456;28;8902;-66
2023/06/15 02:29:40;;;;;;;;;4.00;3.00;;;;;20.53;54.20;101950.44;5065377;28;8846;-66
2023/06/15 02:32:07;;;;;;;;;3.33;2.67;;;;;20.51;54.22;101949.88;5033423;28;8899;-67
2023/06/15 02:34:33;;;;;;;;;4.00;4.00;;;;;20.49;54.52;101948.19;5033261;28;8976;-67
2023/06/15 02:37:00;;;;;;;;;3.33;3.33;;;;;20.47;54.25;101949.47;5033300;28;8922;-67
2023/06/15 02:39:28;;;;;;;;;3.67;3.67;;;;;20.47;54.42;101955.75;5033168;28;8919;-67
2023/06/15 02:41:55;;;;;;;;;2.25;2.25;;;;;20.45;54.88;101959.78;5032033;28;8926;-66
2023/06/15 02:44:22;;;;;;;;;2.33;2.33;;;;;20.42;54.60;101958.38;5031433;28;8826;-67
2023/06/15 02:46:49;;;;;;;;;3.00;3.00;;;;;20.38;55.00;101956.34;5033127;28;9019;-66
2023/06/15 02:49:18;;;;;;;;;3.75;3.75;;;;;20.34;54.82;101953.22;5031746;28;9043;-66
2023/06/15 02:51:45;;;;;;;;;6.00;6.00;;;;;20.31;55.00;101948.22;5031823;28;8953;-66
2023/06/15 02:54:12;;;;;;;;;3.50;3.50;;;;;20.27;55.13;101946.19;5031319;28;8999;-66
2023/06/15 02:56:41;;;;;;;;;4.00;4.00;;;;;20.26;55.27;101956.28;5031917;28;8875;-66
2023/06/15 02:59:08;;;;;;;;;7.33;3.00;;;;;20.23;55.32;101954.00;5031522;28;8947;-67
2023/06/15 03:01:53;;;;;;;;;5.75;3.25;;;;;20.21;55.34;101956.97;5064963;28;9776;-66
2023/06/15 03:04:23;;;;;;;;;3.00;3.00;;;;;20.20;55.23;101954.47;5015007;28;8862;-67
2023/06/15 03:06:57;;;;;;;;;4.00;4.00;;;;;20.20;55.38;101951.72;5031394;28;8826;-67
2023/06/15 03:09:48;;;;;;;;;4.00;4.00;;;;;20.19;55.49;101952.81;5059119;28;9709;-66
2023/06/15 03:12:16;;;;;;;;;4.00;4.00;;;;;20.17;55.49;101954.91;5031426;28;8830;-66
2023/06/15 03:14:44;;;;;;;;;3.00;3.00;;;;;20.15;55.39;101948.88;5030933;28;8925;-66
2023/06/15 03:17:12;;;;;;;;;3.00;3.00;;;;;20.14;55.59;101953.50;5031342;28;8941;-66
2023/06/15 03:19:46;;;;;;;;;4.00;4.00;;;;;20.12;55.54;101961.09;5031403;28;8837;-66
2023/06/15 03:22:14;;;;;;;;;3.75;3.75;;;;;20.10;55.55;101952.31;5031344;28;8980;-67
2023/06/15 03:24:44;;;;;;;;;4.33;4.33;;;;;20.06;55.62;101963.94;5047166;28;8904;-67
2023/06/15 03:27:11;;;;;;;;;4.00;4.00;;;;;20.02;55.81;101959.97;5047927;28;8931;-67
2023/06/15 03:29:39;;;;;;;;;3.00;2.75;;;;;19.98;55.91;101959.59;5030857;28;8854;-67
2023/06/15 03:32:07;;;;;;;;;3.00;3.00;;;;;19.94;56.13;101959.22;5031051;28;8833;-66
2023/06/15 03:34:35;;;;;;;;;7.00;4.33;;;;;19.91;56.60;101961.59;5030526;28;8912;-66
2023/06/15 03:37:02;;;;;;;;;4.00;3.33;;;;;19.88;56.34;101965.59;5031017;28;8994;-66
2023/06/15 03:39:30;;;;;;;;;5.00;5.00;;;;;19.86;56.43;101970.47;5030998;28;8972;-66
2023/06/15 03:41:57;;;;;;;;;5.00;5.00;;;;;19.84;56.52;101969.84;5032250;28;9186;-65
2023/06/15 03:44:23;;;;;;;;;4.00;4.00;;;;;19.81;56.53;101970.31;5030776;28;9071;-66
2023/06/15 03:46:50;;;;;;;;;5.67;3.67;;;;;19.80;56.90;101962.34;5032780;28;9153;-67
2023/06/15 03:49:19;;;;;;;;;4.00;4.00;;;;;19.78;56.93;101962.59;5030793;28;8925;-67
2023/06/15 03:51:47;;;;;;;;;6.33;6.33;;;;;19.78;56.83;101967.22;5047257;28;9048;-66
2023/06/15 03:54:14;;;;;;;;;3.33;3.33;;;;;19.76;57.02;101968.25;5063514;28;9149;-66
2023/06/15 03:56:41;;;;;;;;;3.67;3.67;;;;;19.76;57.19;101961.97;5030591;28;9079;-66
2023/06/15 03:59:07;;;;;;;;;4.67;3.00;;;;;19.79;57.41;101968.88;5030386;28;9132;-67
2023/06/15 04:01:34;;;;;;;;;6.00;6.00;;;;;19.82;57.61;101958.31;5063804;28;9811;-66
2023/06/15 04:04:00;;;;;;;;;6.00;6.00;;;;;19.84;57.85;101964.38;5030033;28;9054;-67
2023/06/15 04:06:27;;;;;;;;;3.67;3.67;;;;;19.90;57.99;101957.19;5031609;28;9181;-67
2023/06/15 04:08:54;;;;;;;;;4.00;4.00;;;;;19.99;58.08;101964.84;5030325;28;9651;-67
2023/06/15 04:11:22;;;;;;;;;4.00;4.00;;;;;20.09;57.80;101961.53;5030125;28;8907;-68
2023/06/15 04:13:48;;;;;;;;;3.00;3.00;;;;;20.11;58.09;101969.53;5013814;28;8985;-67
2023/06/15 04:16:15;;;;;;;;;4.33;4.33;;;;;20.08;58.18;101964.50;5029947;28;9036;-66
2023/06/15 04:18:43;;;;;;;;;6.67;5.33;;;;;20.02;58.36;101960.81;5063637;28;8964;-66
2023/06/15 04:21:09;;;;;;;;;4.67;4.67;;;;;19.98;58.64;101960.44;5031409;28;9074;-66
2023/06/15 04:23:36;;;;;;;;;6.33;6.33;;;;;19.95;58.77;101966.34;5030138;28;9797;-65
2023/06/15 04:26:03;;;;;;;;;4.00;4.00;;;;;19.92;58.83;101965.97;5062952;28;9170;-66
2023/06/15 04:28:33;;;;;;;;;3.67;3.67;;;;;19.90;59.12;101970.84;5046460;28;9130;-65
2023/06/15 04:31:09;;;;;;;;;3.67;3.67;;;;;19.88;59.15;101964.75;5029964;28;9218;-65
2023/06/15 04:33:42;;;;;;;;;4.00;4.00;;;;;19.87;59.47;101966.66;5063246;28;9075;-66
2023/06/15 04:36:13;;;;;;;;;3.67;3.67;;;;;19.86;59.66;101969.63;5029741;28;9075;-67
2023/06/15 04:38:48;;;;;;;;;3.00;3.00;;;;;19.84;59.97;101969.84;5063194;28;9004;-67
2023/06/15 04:41:22;;;;;;;;;5.67;5.00;;;;;19.84;60.19;101978.03;5029839;28;8830;-67
2023/06/15 04:43:57;;;;;;;;;3.00;3.00;;;;;19.84;60.16;101978.03;5029168;28;8995;-67
2023/06/15 04:46:24;;;;;;;;;3.00;3.00;;;;;19.83;60.32;101979.13;5045783;28;9017;-66
2023/06/15 04:48:51;;;;;;;;;5.00;4.00;;;;;19.86;60.41;101986.03;5029419;28;9000;-67
2023/06/15 04:51:18;;;;;;;;;4.33;4.33;;;;;19.89;60.38;101991.03;5029664;28;9002;-66
2023/06/15 04:53:45;;;;;;;;;3.50;3.50;;;;;19.90;60.24;101990.81;5030789;28;9038;-67
2023/06/15 04:56:13;;;;;;;;;4.00;3.67;;;;;19.93;60.31;101995.81;5029274;28;9600;-65
2023/06/15 04:58:40;;;;;;;;;6.33;6.00;;;;;19.96;60.28;101995.34;5062579;28;9000;-66
2023/06/15 05:01:07;;;;;;;;;2.75;2.75;;;;;20.01;60.21;101989.19;5029519;28;8957;-68
2023/06/15 05:03:34;;;;;;;;;3.25;3.25;;;;;20.03;60.14;101999.91;5062652;28;8850;-69
2023/06/15 05:06:02;;;;;;;;;4.00;3.67;;;;;20.04;59.92;101994.19;5027683;28;8833;-66
2023/06/15 05:08:31;;;;;;;;;4.00;4.00;;;;;20.05;59.92;101993.13;5024928;28;9007;-66
2023/06/15 05:11:00;;;;;;;;;3.67;3.67;;;;;20.10;60.03;102004.25;5028801;28;8983;-66
2023/06/15 05:13:29;;;;;;;;;6.75;3.25;;;;;20.14;59.83;101999.16;5053504;28;8933;-66
2023/06/15 05:15:56;;;;;;;;;5.67;5.67;;;;;20.18;59.59;102001.19;5027073;28;8844;-69
2023/06/15 05:18:25;;;;;;;;;3.75;3.75;;;;;20.20;59.38;102000.94;5028740;28;8925;-66
2023/06/15 05:20:51;;;;;;;;;3.67;3.67;;;;;20.22;59.40;101996.94;5029214;28;8892;-66
2023/06/15 05:23:21;;;;;;;;;3.25;3.25;;;;;20.21;59.49;102000.72;5037332;28;9060;-68
2023/06/15 05:25:48;;;;;;;;;2.75;2.75;;;;;20.21;59.39;102003.44;5056457;28;8858;-67
2023/06/15 05:28:16;;;;;;;;;5.25;4.25;;;;;20.21;59.79;101997.97;5028925;28;8957;-67
2023/06/15 05:30:42;;;;;;;;;5.00;5.00;;;;;20.30;59.66;101998.50;5028928;28;8826;-67
2023/06/15 05:33:10;;;;;;;;;3.00;3.00;;;;;20.47;59.19;102001.44;5012651;28;8938;-69
2023/06/15 05:35:37;;;;;;;;;3.25;3.00;;;;;20.60;58.42;101998.53;5028391;28;8881;-67
2023/06/15 05:38:03;;;;;;;;;6.00;6.00;;;;;20.71;58.12;102005.94;5028773;28;8854;-66
2023/06/15 05:40:33;;;;;;;;;4.00;4.00;;;;;20.88;57.62;102005.28;5012735;28;8894;-67
2023/06/15 05:42:59;;;;;;;;;6.00;6.00;;;;;21.05;56.75;102003.50;5028690;28;8818;-67
2023/06/15 05:45:27;;;;;;;;;6.00;5.25;;;;;21.16;56.19;102008.19;5028512;28;9573;-67
2023/06/15 05:47:54;;;;;;;;;4.00;3.00;;;;;21.28;55.96;102005.44;5028712;28;8829;-66
2023/06/15 05:50:22;;;;;;;;;5.50;5.50;;;;;21.26;54.64;102009.50;5028529;28;9675;-67
2023/06/15 05:52:49;;;;;;;;;3.75;3.75;;;;;21.22;54.89;102004.47;5028575;28;8845;-66
2023/06/15 05:55:17;;;;;;;;;6.50;6.25;;;;;21.27;54.96;102012.00;5030404;28;8911;-67
2023/06/15 05:57:43;;;;;;;;;9.75;7.25;;;;;21.31;55.23;102010.47;5032842;28;8912;-66
2023/06/15 06:00:11;;;;;;;;;4.00;3.75;;;;;21.37;55.20;102000.47;5034199;28;8869;-66
2023/06/15 06:02:41;;;;;;;;;5.00;5.00;;;;;21.36;55.13;102004.31;5034065;28;8858;-66
2023/06/15 06:05:12;;;;;;;;;7.50;5.50;;;;;21.29;55.32;102006.28;5016967;28;9837;-66
2023/06/15 06:07:39;;;;;;;;;3.75;3.75;;;;;21.27;55.26;102003.78;5032829;28;9004;-67
2023/06/15 06:10:07;;;;;;;;;7.00;6.25;;;;;21.26;55.26;102006.75;5032726;28;8834;-68
2023/06/15 06:12:37;;;;;;;;;7.67;6.67;;;;;21.21;54.69;102010.19;5016922;28;8842;-66
2023/06/15 06:15:05;;;;;;;;;8.00;7.25;;;;;21.19;54.61;102007.72;5032421;28;8906;-66
2023/06/15 06:17:31;;;;;;;;;5.00;5.00;;;;;21.17;54.95;102009.00;5032495;28;8848;-67
2023/06/15 06:20:18;;;;;;;;;7.25;7.00;;;;;21.19;54.87;102012.38;5032616;28;8833;-65
2023/06/15 06:22:44;;;;;;;;;7.00;4.50;;;;;21.16;54.99;102015.56;5033631;28;8838;-64
2023/06/15 06:25:13;;;;;;;;;10.67;8.00;;;;;21.06;54.59;102016.13;5015674;28;8865;-64
2023/06/15 06:27:42;;;;;;;;;5.00;5.00;;;;;21.00;55.04;102017.09;5032582;28;8986;-65
2023/06/15 06:30:09;;;;;;;;;5.75;4.00;;;;;20.92;54.75;102012.78;5033549;28;8924;-65
2023/06/15 06:32:36;;;;;;;;;8.00;8.00;;;;;20.94;55.10;102015.28;5033380;28;8856;-64
2023/06/15 06:35:03;;;;;;;;;9.75;7.25;;;;;20.88;54.52;102010.75;5033250;28;8890;-66
2023/06/15 06:37:30;;;;;;;;;7.00;7.00;;;;;20.85;54.38;102011.22;5032009;28;8842;-64
2023/06/15 06:39:56;;;;;;;;;6.75;6.50;;;;;20.88;54.69;102013.47;5033236;28;8841;-64
2023/06/15 06:42:23;;;;;;;;;6.25;4.50;;;;;20.94;54.88;102018.00;5033230;28;8842;-65
2023/06/15 06:44:49;;;;;;;;;8.50;6.25;;;;;20.98;54.75;102011.84;5031934;28;9672;-65
2023/06/15 06:47:16;;;;;;;;;7.00;7.00;;;;;20.98;54.65;102011.84;5033108;28;8818;-65
2023/06/15 06:49:42;;;;;;;;;8.00;8.00;;;;;21.00;54.68;102017.09;5032953;28;8846;-67
2023/06/15 06:52:09;;;;;;;;;7.00;7.00;;;;;20.99;54.63;102024.47;5032955;28;8994;-66
2023/06/15 06:54:35;;;;;;;;;9.00;7.25;;;;;21.02;55.15;102027.78;5032652;28;8928;-65
2023/06/15 06:57:03;;;;;;;;;9.67;9.00;;;;;21.04;55.34;102028.41;5033250;28;8815;-64
2023/06/15 06:59:30;;;;;;;;;7.33;7.33;;;;;21.05;55.33;102030.91;5032901;28;8921;-65
2023/06/15 07:02:09;;;;;;;;;7.33;7.33;;;;;21.08;55.47;102022.22;5033213;28;8941;-65
2023/06/15 07:04:36;;;;;;;;;8.75;7.75;;;;;21.13;55.66;102019.59;5031421;28;8932;-69
2023/06/15 07:07:03;;;;;;;;;8.50;7.25;;;;;21.13;55.85;102025.06;5030916;28;8826;-66
2023/06/15 07:09:30;;;;;;;;;7.75;7.75;;;;;21.14;56.21;102024.00;5031374;28;9572;-65
2023/06/15 07:11:57;;;;;;;;;8.00;7.00;;;;;21.16;56.75;102030.09;5031463;28;8830;-66
2023/06/15 07:14:24;;;;;;;;;7.50;6.75;;;;;21.19;56.50;102024.16;5031116;28;8942;-65
2023/06/15 07:16:51;;;;;;;;;9.67;8.00;;;;;21.24;56.88;102031.66;5032644;28;9606;-66
2023/06/15 07:19:17;;;;;;;;;9.67;9.67;;;;;21.27;56.89;102033.06;5014687;28;8924;-66
2023/06/15 07:21:44;;;;;;;;;10.33;10.33;;;;;21.15;56.92;102036.63;5031636;28;8903;-66
2023/06/15 07:24:10;;;;;;;;;12.00;10.67;;;;;21.09;57.33;102043.03;5031375;28;8952;-65
2023/06/15 07:26:37;;;;;;;;;10.33;9.00;;;;;21.11;57.27;102031.88;5029819;28;9008;-67
2023/06/15 07:29:03;;;;;;;;;9.67;9.67;;;;;21.14;56.58;102034.13;5031997;28;8915;-65
2023/06/15 07:31:30;;;;;;;;;13.00;11.00;;;;;21.11;56.38;102040.09;5030133;28;9000;-66
2023/06/15 07:33:56;;;;;;;;;9.50;7.75;;;;;21.21;56.46;102037.59;5032298;28;8924;-65
2023/06/15 07:36:23;;;;;;;;;8.00;7.00;;;;;21.29;56.35;102039.16;5032005;28;9533;-65
2023/06/15 07:38:52;;;;;;;;;12.00;11.67;;;;;21.28;56.25;102040.22;5032032;28;8922;-67
2023/06/15 07:41:18;;;;;;;;;10.00;9.00;;;;;21.27;56.37;102033.91;5030890;28;9057;-65
2023/06/15 07:43:45;;;;;;;;;10.67;10.67;;;;;21.30;55.92;102038.91;5031919;28;9795;-65
2023/06/15 07:46:11;;;;;;;;;9.67;9.67;;;;;21.22;55.75;102031.03;5031739;28;9003;-67
2023/06/15 07:48:38;;;;;;;;;10.00;9.50;;;;;21.21;55.93;102034.84;5032008;28;8976;-66
2023/06/15 07:51:04;;;;;;;;;9.25;9.25;;;;;21.21;56.02;102038.41;5007899;28;8897;-66
2023/06/15 07:53:31;;;;;;;;;7.50;7.50;;;;;21.28;55.69;102034.75;5029644;28;8842;-66
2023/06/15 07:55:57;;;;;;;;;8.00;8.00;;;;;21.36;55.06;102037.16;5025031;28;8838;-66
2023/06/15 07:58:24;;;;;;;;;9.50;9.50;;;;;21.40;55.70;102041.09;5030413;28;8819;-67
2023/06/15 08:00:51;;;;;;;;;9.25;9.25;;;;;21.35;56.13;102044.56;5031941;28;8837;-66
2023/06/15 08:03:17;;;;;;;;;7.75;6.75;;;;;21.35;56.13;102043.69;5031664;28;8833;-66
2023/06/15 08:05:44;;;;;;;;;12.75;9.25;;;;;21.30;56.15;102049.03;5031400;28;8931;-65
2023/06/15 08:08:11;;;;;;;;;12.25;8.00;;;;;21.30;56.46;102046.28;5031653;28;8845;-66
2023/06/15 08:10:37;;;;;;;;;10.00;9.33;;;;;21.32;56.28;102045.03;5031343;28;8826;-66
2023/06/15 08:13:07;;;;;;;;;15.00;15.00;;;;;21.23;56.30;102041.78;5031517;28;8992;-65
2023/06/15 08:15:34;;;;;;;;;11.25;9.50;;;;;21.22;56.70;102040.06;5031246;28;8911;-66
2023/06/15 08:18:00;;;;;;;;;17.00;14.67;;;;;21.16;56.85;102041.03;5029286;28;8885;-68
2023/06/15 08:20:27;;;;;;;;;16.33;14.00;;;;;21.16;55.98;102037.47;5031344;28;9001;-67
2023/06/15 08:22:53;;;;;;;;;12.75;12.00;;;;;21.15;56.23;102050.31;5030165;28;9673;-65
2023/06/15 08:25:20;;;;;;;;;11.00;9.25;;;;;21.17;55.78;102037.22;5030900;28;8806;-66
2023/06/15 08:27:46;;;;;;;;;13.00;12.50;;;;;21.25;55.33;102033.31;5030694;28;8834;-66
2023/06/15 08:30:13;;;;;;;;;9.75;9.75;;;;;21.31;55.23;102045.22;5029902;28;8836;-67
2023/06/15 08:32:40;;;;;;;;;11.00;11.00;;;;;21.39;53.98;102048.50;5029654;28;8826;-67
2023/06/15 08:35:07;;;;;;;;;11.67;10.67;;;;;21.30;53.98;102043.56;5007508;28;8834;-65
2023/06/15 08:37:35;;;;;;;;;9.00;7.75;;;;;21.35;55.09;102046.44;5029953;28;8999;-65
2023/06/15 08:40:06;;;;;;;;;8.25;8.25;;;;;21.43;54.43;102040.59;5029783;28;8853;-68
2023/06/15 08:42:33;;;;;;;;;8.25;8.25;;;;;21.53;54.04;102043.59;5031215;28;8833;-66
2023/06/15 08:45:04;;;;;;;;;9.25;9.25;;;;;21.62;52.54;102044.06;5030849;28;8958;-66
2023/06/15 08:47:32;;;;;;;;;8.00;6.25;;;;;21.68;51.29;102049.44;5031005;28;9561;-66
2023/06/15 08:50:04;;;;;;;;;10.00;8.00;;;;;21.78;50.60;102048.00;5031125;28;8818;-65
2023/06/15 08:52:33;;;;;;;;;6.75;6.75;;;;;21.85;50.11;102043.22;5030774;28;8838;-65
2023/06/15 08:55:01;;;;;;;;;7.00;7.00;;;;;21.92;50.81;102047.50;5029422;28;8818;-66
2023/06/15 08:57:28;;;;;;;;;8.75;8.00;;;;;22.00;50.74;102043.56;5030922;28;9003;-67
2023/06/15 08:59:56;;;;;;;;;8.50;8.25;;;;;22.08;50.60;102043.19;5029717;28;8854;-66
2023/06/15 09:02:24;;;;;;;;;10.00;9.00;;;;;22.17;50.30;102051.91;5030686;28;8810;-66
2023/06/15 09:04:52;;;;;;;;;6.00;6.00;;;;;22.20;50.68;102044.03;5029587;28;8864;-66
2023/06/15 09:07:20;;;;;;;;;9.25;9.25;;;;;22.28;49.62;102050.19;5027866;28;8896;-65
2023/06/15 09:10:19;;;;;;;;;8.75;8.50;;;;;22.24;46.78;102046.25;5029176;28;8912;-66
2023/06/15 09:12:53;;;;;;;;;5.25;5.25;;;;;22.24;45.34;102040.78;5029017;28;9233;-65
2023/06/15 09:15:28;;;;;;;;;4.50;4.50;;;;;22.21;45.96;102047.59;5030380;28;8830;-67
2023/06/15 09:18:00;;;;;;;;;7.25;6.00;;;;;22.27;44.65;102034.81;5029006;28;8842;-66
2023/06/15 09:20:30;;;;;;;;;6.50;6.50;;;;;22.33;45.28;102045.66;5030268;28;8838;-67
2023/06/15 09:23:01;;;;;;;;;6.50;5.50;;;;;22.44;46.03;102041.19;5030232;28;8830;-67
2023/06/15 09:25:31;;;;;;;;;6.75;6.75;;;;;22.52;45.53;102032.56;5046375;28;8825;-65
2023/06/15 09:27:59;;;;;;;;;8.75;8.75;;;;;22.63;45.96;102041.84;5028649;28;8872;-65
2023/06/15 09:30:39;;;;;;;;;10.25;7.75;;;;;22.71;46.11;102041.44;5029880;28;8930;-65
2023/06/15 09:33:12;;;;;;;;;7.25;7.00;;;;;22.68;45.56;102041.91;5030220;28;8915;-65
2023/06/15 09:35:58;;;;;;;;;7.00;7.00;;;;;22.69;45.68;102038.94;5062268;28;8838;-66
2023/06/15 09:38:45;;;;;;;;;5.25;5.25;;;;;22.79;45.50;102037.47;5028850;28;8845;-67
2023/06/15 09:41:14;;;;;;;;;7.75;6.25;;;;;22.81;46.04;102035.28;5030202;28;8881;-66
2023/06/15 09:43:40;;;;;;;;;8.25;8.25;;;;;22.88;46.28;102042.28;5027598;28;9542;-65
2023/06/15 09:46:20;;;;;;;;;10.00;8.25;;;;;22.97;46.32;102033.69;5030006;28;8852;-67
2023/06/15 09:48:47;;;;;;;;;7.75;7.75;;;;;23.01;46.97;102043.94;5029996;28;8822;-65
2023/06/15 09:51:15;;;;;;;;;11.00;10.00;;;;;23.03;45.72;102040.94;5028972;28;8818;-66
2023/06/15 09:53:43;;;;;;;;;7.50;7.50;;;;;22.98;46.30;102038.94;5029959;28;8842;-66
2023/06/15 09:56:10;;;;;;;;;7.00;7.00;;;;;23.05;45.65;102049.75;5029969;28;8845;-66
2023/06/15 09:58:57;;;;;;;;;9.00;8.00;;;;;23.00;46.07;102036.75;5030147;28;8830;-67
2023/06/15 10:01:27;;;;;;;;;9.25;9.25;;;;;23.03;45.12;102043.69;5029632;28;8912;-66
2023/06/15 10:03:56;;;;;;;;;9.25;9.25;;;;;23.05;45.13;102036.88;5029772;28;8826;-66
2023/06/15 10:06:26;;;;;;;;;8.75;7.00;;;;;23.02;44.22;102037.38;5029635;28;8814;-66
2023/06/15 10:08:56;;;;;;;;;10.75;10.00;;;;;23.06;44.19;102027.53;5029738;28;8825;-65
2023/06/15 10:11:24;;;;;;;;;7.75;7.00;;;;;23.11;44.23;102035.03;5029945;28;8953;-67
2023/06/15 10:14:07;;;;;;;;;6.25;6.25;;;;;23.11;44.49;102038.59;5029793;28;8814;-67
2023/06/15 10:16:36;;;;;;;;;7.50;7.50;;;;;23.15;44.32;102037.03;5029825;28;8823;-67
2023/06/15 10:19:05;;;;;;;;;6.50;6.50;;;;;23.21;44.03;102035.19;5029563;28;8842;-67
2023/06/15 10:21:36;;;;;;;;;9.75;8.25;;;;;23.25;43.35;102030.84;5029452;28;8862;-67
2023/06/15 10:24:12;;;;;;;;;8.75;7.75;;;;;23.33;42.38;102033.19;5027435;28;8838;-66
2023/06/15 10:26:40;;;;;;;;;7.50;7.25;;;;;23.36;42.99;102026.38;5029458;28;8923;-67
2023/06/15 10:29:36;;;;;;;;;5.75;5.50;;;;;23.47;42.26;102038.34;5061363;28;8830;-67
2023/06/15 10:32:14;;;;;;;;;5.50;5.50;;;;;23.48;42.68;102038.09;5028165;28;8937;-67
2023/06/15 10:35:17;;;;;;;;;5.50;5.50;;;;;23.54;42.47;102039.84;5060807;28;8842;-66
2023/06/15 10:38:10;;;;;;;;;6.75;6.50;;;;;23.62;42.89;102039.44;5029626;28;8896;-67
2023/06/15 10:40:47;;;;;;;;;10.75;8.75;;;;;23.73;42.18;102040.41;5030252;28;8837;-67
2023/06/15 10:43:21;;;;;;;;;12.75;8.75;;;;;23.79;41.69;102038.59;5033179;28;8933;-66
2023/06/15 10:45:48;;;;;;;;;9.75;9.75;;;;;23.81;40.61;102033.66;5031493;28;8799;-66
2023/06/15 10:48:22;;;;;;;;;7.00;7.00;;;;;23.85;41.09;102034.81;5031834;28;8850;-65
2023/06/15 10:50:50;;;;;;;;;6.50;6.25;;;;;23.90;40.54;102023.88;5033060;28;8826;-66
2023/06/15 10:53:25;;;;;;;;;5.50;5.50;;;;;23.91;40.86;102028.31;5031670;28;8834;-67
2023/06/15 10:55:53;;;;;;;;;8.00;7.00;;;;;24.00;40.42;102035.03;5032512;28;8810;-66
2023/06/15 10:58:19;;;;;;;;;5.50;5.50;;;;;23.99;39.58;102035.28;5033236;28;8814;-67
2023/06/15 11:01:05;;;;;;;;;4.00;4.00;;;;;23.99;39.78;102032.53;5031471;28;8873;-67
2023/06/15 11:03:33;;;;;;;;;8.25;8.25;;;;;24.00;39.68;102035.03;5032608;28;8892;-66
2023/06/15 11:06:06;;;;;;;;;8.00;6.75;;;;;24.03;40.22;102034.50;5032291;28;9540;-67
2023/06/15 11:08:46;;;;;;;;;7.50;6.75;;;;;24.03;39.16;102034.50;5030638;28;8830;-67
2023/06/15 11:11:14;;;;;;;;;9.75;8.00;;;;;24.02;39.35;102029.25;5032364;28;8964;-67
2023/06/15 11:14:03;;;;;;;;;10.50;8.75;;;;;24.07;38.67;102034.84;5032103;28;8932;-66
2023/06/15 11:16:37;;;;;;;;;6.00;6.00;;;;;24.05;39.34;102034.25;5024488;28;8807;-66
2023/06/15 11:19:13;;;;;;;;;6.00;6.00;;;;;24.09;39.03;102033.47;5014009;28;8896;-67
2023/06/15 11:22:06;;;;;;;;;7.00;7.00;;;;;24.05;38.16;102032.31;5030936;28;8853;-66
2023/06/15 11:24:36;;;;;;;;;5.50;5.50;;;;;24.04;37.41;102033.41;5015117;28;8826;-66
2023/06/15 11:27:05;;;;;;;;;6.25;6.25;;;;;24.07;37.73;102038.41;5032356;28;8929;-66
2023/06/15 11:29:37;;;;;;;;;6.25;6.25;;;;;24.09;37.53;102033.47;5031701;28;9588;-67
2023/06/15 11:32:04;;;;;;;;;6.00;6.00;;;;;24.22;37.84;102025.91;5053235;28;8867;-67
2023/06/15 11:34:31;;;;;;;;;6.50;5.75;;;;;24.32;37.34;102031.56;5034826;28;8864;-65
2023/06/15 11:37:02;;;;;;;;;9.25;8.75;;;;;24.29;37.03;102043.06;5031788;28;8834;-68
2023/06/15 11:39:30;;;;;;;;;8.00;8.00;;;;;24.28;37.33;102030.41;5030509;28;8872;-66
2023/06/15 11:41:58;;;;;;;;;9.75;9.75;;;;;24.22;37.30;102025.91;5031539;28;8818;-67